Chicoutimi, Canada
Current Conditions -  °F | °C
As of 12:00 PM on Thursday 18 Dec 2014 (Local Time) from CYBG Reporting Station
Light Snow Light Snow  
Wind Chill: 20°   Ceiling: 800
Heat Index: 28°   Visibility: 3mi
Dew Point: 25°   Wind: 8mph
Humidity: 86%   Direction: 300°WNW
Pressure: 29.8"   Gusts: NA
Location:  48.43°N, 71.06°W
Report Text: CYBG 181700Z 30007KT 3SM -SN BKN008 BKN025 M02/M04 A2980 RMK SF5SC2 SLP101
Loading
Personal Weather Stations






























Interactive Weather Map New forecast layout! Learn more

10-Day Weather Forecast

Advertisements
Track Severe Weather on mobile